Time;durP1;ratioP1;P1;durP2;ratioP2;P2;SDS_P1;SDS_P2;PMS_P1;PMS_P2;Temp;Humidity;BMP_temperature;BMP_pressure;BME280_temperature;BME280_humidity;BME280_pressure;Samples;Min_cycle;Max_cycle;Signal;HPM_P1;HPM_P2
2022/12/16 00:01:21;;;;;;;;;;;;;;;21.13;28.49;97988.66;5040720;28;1085;-78
2022/12/16 00:03:50;;;;;;;;;;;;;;;20.95;29.13;97988.31;5056716;28;936;-78
2022/12/16 00:06:16;;;;;;;;;;;;;;;20.86;29.09;97976.81;5057224;28;991;-78
2022/12/16 00:08:41;;;;;;;;;;;;;;;21.36;28.29;97972.78;5056389;28;954;-78
2022/12/16 00:11:07;;;;;;;;;;;;;;;21.23;28.51;97976.28;5040327;28;1349;-78
2022/12/16 00:13:33;;;;;;;;;;;;;;;21.18;28.48;97971.16;5039967;28;920;-78
2022/12/16 00:15:58;;;;;;;;;;;;;;;20.89;28.85;97981.59;5056910;28;1055;-78
2022/12/16 00:18:24;;;;;;;;;;;;;;;20.88;28.94;97982.81;5023363;28;1980;-78
2022/12/16 00:20:52;;;;;;;;;;;;;;;20.80;29.05;97985.03;5040358;28;975;-78
2022/12/16 00:23:17;;;;;;;;;;;;;;;21.28;28.56;97970.06;5056207;28;1025;-78
2022/12/16 00:25:43;;;;;;;;;;;;;;;21.30;28.39;97972.50;5039985;28;956;-78
2022/12/16 00:28:09;;;;;;;;;;;;;;;21.48;28.25;97974.88;5056447;28;1036;-78
2022/12/16 00:30:34;;;;;;;;;;;;;;;20.93;28.91;97965.31;5039824;28;1222;-79
2022/12/16 00:33:00;;;;;;;;;;;;;;;20.88;28.98;97968.66;5056179;28;1080;-78
2022/12/16 00:35:25;;;;;;;;;;;;;;;20.98;29.07;97965.56;5080165;28;1063;-78
2022/12/16 00:37:51;;;;;;;;;;;;;;;21.21;28.61;97958.94;5098266;28;1917;-78
2022/12/16 00:40:16;;;;;;;;;;;;;;;21.40;28.35;97953.63;5098707;28;952;-78
2022/12/16 00:42:41;;;;;;;;;;;;;;;21.07;28.67;97948.78;5098879;28;921;-78
2022/12/16 00:45:07;;;;;;;;;;;;;;;20.85;29.07;97941.28;5097775;28;1025;-78
2022/12/16 00:47:32;;;;;;;;;;;;;;;20.79;29.33;97938.19;5099018;28;865;-79
2022/12/16 00:49:58;;;;;;;;;;;;;;;21.08;28.85;97941.09;5098494;28;925;-78
2022/12/16 00:52:23;;;;;;;;;;;;;;;21.28;28.51;97949.47;5098588;28;906;-78
2022/12/16 00:54:49;;;;;;;;;;;;;;;21.30;28.79;97938.56;5098463;28;960;-78
2022/12/16 00:57:14;;;;;;;;;;;;;;;20.98;28.98;97933.66;5097345;28;1910;-78
2022/12/16 00:59:39;;;;;;;;;;;;;;;20.73;29.57;97934.31;5098321;28;832;-78
2022/12/16 01:02:05;;;;;;;;;;;;;;;20.57;29.60;97937.88;5098864;28;938;-78
2022/12/16 01:04:33;;;;;;;;;;;;;;;20.91;29.32;97940.31;5098744;28;896;-78
2022/12/16 01:06:59;;;;;;;;;;;;;;;21.13;29.05;97929.22;5098467;28;856;-78
2022/12/16 01:09:25;;;;;;;;;;;;;;;21.18;28.88;97928.69;5098647;28;859;-78
2022/12/16 01:11:50;;;;;;;;;;;;;;;21.06;28.81;97929.44;5098303;28;1028;-78
2022/12/16 01:14:16;;;;;;;;;;;;;;;20.76;29.50;97917.22;5097861;28;867;-78
2022/12/16 01:16:41;;;;;;;;;;;;;;;21.09;29.00;97922.91;5098292;28;1967;-78
2022/12/16 01:19:06;;;;;;;;;;;;;;;21.39;28.37;97918.09;5097760;28;919;-78
2022/12/16 01:21:32;;;;;;;;;;;;;;;21.36;28.43;97919.00;5098115;28;849;-78
2022/12/16 01:23:58;;;;;;;;;;;;;;;21.03;28.96;97919.78;5098183;28;903;-78
2022/12/16 01:26:23;;;;;;;;;;;;;;;20.97;29.30;97921.56;5098590;28;857;-78
2022/12/16 01:28:49;;;;;;;;;;;;;;;21.03;28.92;97933.94;5097677;28;831;-78
2022/12/16 01:31:17;;;;;;;;;;;;;;;21.05;29.11;97930.69;5097733;28;938;-78
2022/12/16 01:33:43;;;;;;;;;;;;;;;21.23;28.79;97936.66;5097376;28;896;-78
2022/12/16 01:36:08;;;;;;;;;;;;;;;21.29;28.62;97932.03;5096895;28;833;-78
2022/12/16 01:38:34;;;;;;;;;;;;;;;21.04;28.95;97938.38;5096033;28;1898;-78
2022/12/16 01:40:59;;;;;;;;;;;;;;;20.68;29.58;97932.00;5097866;28;1042;-78
2022/12/16 01:43:29;;;;;;;;;;;;;;;20.90;29.27;97937.94;5096211;28;915;-78
2022/12/16 01:46:15;;;;;;;;;;;;;;;20.96;29.26;97936.94;5097809;28;917;-78
2022/12/16 01:48:48;;;;;;;;;;;;;;;21.18;29.29;97933.56;5096893;28;897;-78
2022/12/16 01:51:17;;;;;;;;;;;;;;;21.23;28.77;97933.03;5078764;28;1096;-78
2022/12/16 01:53:42;;;;;;;;;;;;;;;20.95;29.44;97940.22;5097393;28;890;-79
2022/12/16 01:56:07;;;;;;;;;;;;;;;21.03;28.99;97941.63;5096169;28;915;-78
2022/12/16 01:58:33;;;;;;;;;;;;;;;21.14;29.22;97936.50;5095975;28;1902;-78
2022/12/16 02:00:59;;;;;;;;;;;;;;;21.28;28.96;97930.47;5097877;28;939;-78
2022/12/16 02:03:24;;;;;;;;;;;;;;;21.49;28.76;97933.97;5095893;28;859;-79
2022/12/16 02:05:50;;;;;;;;;;;;;;;21.14;29.03;97925.19;5095952;28;841;-78
2022/12/16 02:08:16;;;;;;;;;;;;;;;20.96;29.13;97924.84;5095705;28;867;-78
2022/12/16 02:10:41;;;;;;;;;;;;;;;20.89;29.22;97919.38;5096013;28;1544;-78
2022/12/16 02:13:27;;;;;;;;;;;;;;;20.93;29.57;97920.06;5096849;28;866;-78
2022/12/16 02:15:57;;;;;;;;;;;;;;;21.19;29.08;97926.66;5096298;28;861;-78
2022/12/16 02:18:25;;;;;;;;;;;;;;;21.40;28.88;97919.66;5096183;28;1978;-78
2022/12/16 02:20:54;;;;;;;;;;;;;;;21.22;28.78;97917.28;5096894;28;948;-78
2022/12/16 02:23:25;;;;;;;;;;;;;;;20.87;29.57;97904.84;5096985;28;921;-78
2022/12/16 02:26:09;;;;;;;;;;;;;;;21.00;29.29;97905.75;5096732;28;910;-78
2022/12/16 02:28:50;;;;;;;;;;;;;;;21.15;29.17;97915.47;5097033;28;1103;-78
2022/12/16 02:31:18;;;;;;;;;;;;;;;21.26;29.03;97921.63;5096750;28;923;-78
2022/12/16 02:33:46;;;;;;;;;;;;;;;20.97;29.12;97915.91;5096672;28;919;-78
2022/12/16 02:36:18;;;;;;;;;;;;;;;20.93;29.65;97903.09;5096656;28;871;-78
2022/12/16 02:38:53;;;;;;;;;;;;;;;21.03;29.40;97902.00;5073564;28;1914;-78
2022/12/16 02:41:38;;;;;;;;;;;;;;;21.11;29.18;97914.75;5057442;28;1074;-78
2022/12/16 02:44:05;;;;;;;;;;;;;;;21.18;29.40;97917.38;5014447;28;1374;-78
2022/12/16 02:46:32;;;;;;;;;;;;;;;21.29;28.82;97920.72;4978291;28;1333;-78
2022/12/16 02:49:08;;;;;;;;;;;;;;;21.05;29.32;97925.81;4994341;28;895;-78
2022/12/16 02:51:34;;;;;;;;;;;;;;;20.69;29.85;97920.25;4994812;28;980;-78
2022/12/16 02:54:00;;;;;;;;;;;;;;;20.75;29.73;97921.31;4962178;28;1008;-78
2022/12/16 02:56:47;;;;;;;;;;;;;;;21.11;29.37;97931.72;4978970;28;981;-78
2022/12/16 02:59:31;;;;;;;;;;;;;;;21.25;29.29;97928.53;4995133;28;1090;-78
2022/12/16 03:01:58;;;;;;;;;;;;;;;21.01;29.40;97938.44;4998765;28;1038;-78
2022/12/16 03:04:24;;;;;;;;;;;;;;;20.96;29.49;97941.81;4982498;28;892;-78
2022/12/16 03:06:49;;;;;;;;;;;;;;;20.86;29.82;97926.69;4998883;28;1032;-78
2022/12/16 03:09:16;;;;;;;;;;;;;;;21.07;29.61;97942.34;5004491;28;948;-78
2022/12/16 03:11:42;;;;;;;;;;;;;;;21.21;29.14;97930.66;5018501;28;1200;-78
2022/12/16 03:14:07;;;;;;;;;;;;;;;21.29;29.13;97940.53;5017757;28;920;-78
2022/12/16 03:16:33;;;;;;;;;;;;;;;21.02;29.41;97921.03;5022539;28;961;-78
2022/12/16 03:19:00;;;;;;;;;;;;;;;21.08;29.61;97918.47;5057440;28;1993;-78
2022/12/16 03:21:28;;;;;;;;;;;;;;;20.93;29.64;97914.41;5075407;28;1073;-78
2022/12/16 03:23:55;;;;;;;;;;;;;;;21.33;28.97;97915.00;5098846;28;1099;-78
2022/12/16 03:26:23;;;;;;;;;;;;;;;21.27;29.01;97917.56;5100238;28;930;-78
2022/12/16 03:29:06;;;;;;;;;;;;;;;21.05;29.18;97910.88;5098872;28;857;-78
2022/12/16 03:31:31;;;;;;;;;;;;;;;20.90;29.75;97918.91;5099221;28;899;-78
2022/12/16 03:34:09;;;;;;;;;;;;;;;20.85;29.84;97904.53;5100121;28;949;-78
2022/12/16 03:36:35;;;;;;;;;;;;;;;21.14;29.48;97902.56;5098711;28;979;-78
2022/12/16 03:39:00;;;;;;;;;;;;;;;21.35;29.10;97897.56;5098611;28;1918;-78
2022/12/16 03:41:26;;;;;;;;;;;;;;;21.38;28.98;97894.66;5099433;28;914;-78
2022/12/16 03:43:52;;;;;;;;;;;;;;;20.90;29.69;97889.84;5082113;28;874;-78
2022/12/16 03:46:17;;;;;;;;;;;;;;;20.96;29.83;97890.91;5040921;28;884;-78
2022/12/16 03:48:49;;;;;;;;;;;;;;;20.81;30.05;97885.59;5057097;28;979;-78
2022/12/16 03:51:15;;;;;;;;;;;;;;;21.26;29.34;97876.34;5040656;28;951;-78
2022/12/16 03:53:40;;;;;;;;;;;;;;;21.35;29.21;97877.75;5057517;28;951;-78
2022/12/16 03:56:06;;;;;;;;;;;;;;;21.45;29.13;97876.66;5040418;28;1166;-78
2022/12/16 03:58:34;;;;;;;;;;;;;;;21.21;29.10;97884.59;5056892;28;1909;-78
2022/12/16 04:00:59;;;;;;;;;;;;;;;21.01;29.65;97893.97;5040759;28;1040;-78
2022/12/16 04:03:25;;;;;;;;;;;;;;;21.03;29.56;97907.69;5040300;28;926;-78
2022/12/16 04:05:50;;;;;;;;;;;;;;;21.01;29.60;97910.16;5056936;28;952;-78
2022/12/16 04:08:16;;;;;;;;;;;;;;;20.68;30.15;97904.53;5056860;28;1043;-78
2022/12/16 04:24:25;;;;;;;;;;;;;;;20.62;30.46;97911.13;5098587;28;1004;-77
2022/12/16 04:30:17;;;;;;;;;;;;;;;21.05;29.61;97916.53;5099128;28;831;-78
2022/12/16 04:32:21;;;;;;;;;;;;;;;21.16;29.41;97900.06;5099133;28;995;-78
2022/12/16 04:34:46;;;;;;;;;;;;;;;21.02;29.37;97906.09;5097732;28;979;-78
